sensor_id;sensor_type;location;lat;lon;timestamp;P1;durP1;ratioP1;P2;durP2;ratioP2
48881;SDS011;57063;51.406;-2.402;2022-09-09T00:09:46;10.73;;;8.13;;
48881;SDS011;57063;51.406;-2.402;2022-09-09T00:15:11;15.15;;;8.98;;
48881;SDS011;57063;51.406;-2.402;2022-09-09T00:17:39;14.63;;;8.45;;
48881;SDS011;57063;51.406;-2.402;2022-09-09T00:20:47;12.15;;;7.82;;
48881;SDS011;57063;51.406;-2.402;2022-09-09T00:29:00;15.48;;;9.00;;
48881;SDS011;57063;51.406;-2.402;2022-09-09T00:31:34;9.60;;;7.00;;
48881;SDS011;57063;51.406;-2.402;2022-09-09T00:36:37;22.40;;;8.82;;
48881;SDS011;57063;51.406;-2.402;2022-09-09T00:39:03;21.10;;;9.50;;
48881;SDS011;57063;51.406;-2.402;2022-09-09T00:44:01;16.30;;;9.10;;
48881;SDS011;57063;51.406;-2.402;2022-09-09T00:57:27;14.70;;;9.10;;
48881;SDS011;57063;51.406;-2.402;2022-09-09T01:05:46;12.80;;;8.05;;
48881;SDS011;57063;51.406;-2.402;2022-09-09T01:08:39;13.02;;;7.78;;
48881;SDS011;57063;51.406;-2.402;2022-09-09T01:11:07;15.63;;;7.43;;
48881;SDS011;57063;51.406;-2.402;2022-09-09T01:13:40;12.13;;;6.90;;
48881;SDS011;57063;51.406;-2.402;2022-09-09T01:16:08;14.63;;;7.40;;
48881;SDS011;57063;51.406;-2.402;2022-09-09T01:18:46;9.03;;;5.17;;
48881;SDS011;57063;51.406;-2.402;2022-09-09T01:21:39;12.02;;;5.65;;
48881;SDS011;57063;51.406;-2.402;2022-09-09T01:25:04;8.75;;;5.60;;
48881;SDS011;57063;51.406;-2.402;2022-09-09T01:27:06;8.57;;;4.93;;
48881;SDS011;57063;51.406;-2.402;2022-09-09T01:29:32;7.82;;;5.70;;
48881;SDS011;57063;51.406;-2.402;2022-09-09T01:31:59;13.05;;;5.63;;
48881;SDS011;57063;51.406;-2.402;2022-09-09T01:34:33;11.23;;;5.07;;
48881;SDS011;57063;51.406;-2.402;2022-09-09T01:37:07;10.00;;;5.32;;
48881;SDS011;57063;51.406;-2.402;2022-09-09T01:39:36;9.95;;;5.50;;
48881;SDS011;57063;51.406;-2.402;2022-09-09T01:42:03;11.18;;;5.20;;
48881;SDS011;57063;51.406;-2.402;2022-09-09T01:44:31;10.45;;;6.05;;
48881;SDS011;57063;51.406;-2.402;2022-09-09T01:46:57;6.43;;;4.90;;
48881;SDS011;57063;51.406;-2.402;2022-09-09T01:49:23;8.13;;;5.10;;
48881;SDS011;57063;51.406;-2.402;2022-09-09T01:51:50;7.82;;;4.75;;
48881;SDS011;57063;51.406;-2.402;2022-09-09T01:54:18;12.57;;;5.07;;
48881;SDS011;57063;51.406;-2.402;2022-09-09T01:59:30;9.18;;;4.70;;
48881;SDS011;57063;51.406;-2.402;2022-09-09T02:04:48;13.45;;;5.28;;
48881;SDS011;57063;51.406;-2.402;2022-09-09T02:10:17;11.95;;;4.93;;
48881;SDS011;57063;51.406;-2.402;2022-09-09T02:12:47;6.53;;;4.25;;
48881;SDS011;57063;51.406;-2.402;2022-09-09T02:15:22;20.17;;;5.47;;
48881;SDS011;57063;51.406;-2.402;2022-09-09T02:18:00;10.65;;;5.35;;
48881;SDS011;57063;51.406;-2.402;2022-09-09T02:20:32;10.13;;;4.55;;
48881;SDS011;57063;51.406;-2.402;2022-09-09T02:22:59;9.20;;;5.30;;
48881;SDS011;57063;51.406;-2.402;2022-09-09T02:25:27;12.30;;;5.22;;
48881;SDS011;57063;51.406;-2.402;2022-09-09T02:27:55;8.85;;;3.83;;
48881;SDS011;57063;51.406;-2.402;2022-09-09T02:30:23;11.18;;;4.38;;
48881;SDS011;57063;51.406;-2.402;2022-09-09T02:32:50;8.05;;;4.20;;
48881;SDS011;57063;51.406;-2.402;2022-09-09T02:35:22;8.60;;;3.67;;
48881;SDS011;57063;51.406;-2.402;2022-09-09T02:37:50;7.65;;;3.92;;
48881;SDS011;57063;51.406;-2.402;2022-09-09T02:40:18;6.03;;;3.67;;
48881;SDS011;57063;51.406;-2.402;2022-09-09T02:42:44;8.45;;;4.63;;
48881;SDS011;57063;51.406;-2.402;2022-09-09T02:45:12;6.95;;;3.75;;
48881;SDS011;57063;51.406;-2.402;2022-09-09T02:50:35;10.57;;;3.92;;
48881;SDS011;57063;51.406;-2.402;2022-09-09T02:58:23;6.70;;;2.92;;
48881;SDS011;57063;51.406;-2.402;2022-09-09T03:00:50;6.35;;;2.88;;
48881;SDS011;57063;51.406;-2.402;2022-09-09T03:03:16;5.05;;;2.50;;
48881;SDS011;57063;51.406;-2.402;2022-09-09T03:05:43;8.50;;;3.90;;
48881;SDS011;57063;51.406;-2.402;2022-09-09T03:08:09;6.72;;;2.55;;
48881;SDS011;57063;51.406;-2.402;2022-09-09T03:10:35;5.30;;;2.20;;
48881;SDS011;57063;51.406;-2.402;2022-09-09T03:13:02;6.85;;;2.70;;
48881;SDS011;57063;51.406;-2.402;2022-09-09T03:15:29;3.92;;;2.50;;
48881;SDS011;57063;51.406;-2.402;2022-09-09T03:17:56;7.95;;;2.65;;
48881;SDS011;57063;51.406;-2.402;2022-09-09T03:20:22;6.53;;;2.55;;
48881;SDS011;57063;51.406;-2.402;2022-09-09T03:22:52;4.45;;;2.50;;
48881;SDS011;57063;51.406;-2.402;2022-09-09T03:25:19;8.27;;;2.72;;
48881;SDS011;57063;51.406;-2.402;2022-09-09T03:27:44;6.38;;;2.40;;
48881;SDS011;57063;51.406;-2.402;2022-09-09T03:30:10;8.63;;;2.42;;
48881;SDS011;57063;51.406;-2.402;2022-09-09T03:32:35;5.60;;;2.95;;
48881;SDS011;57063;51.406;-2.402;2022-09-09T03:35:01;9.80;;;2.70;;
48881;SDS011;57063;51.406;-2.402;2022-09-09T03:37:27;4.40;;;2.08;;
48881;SDS011;57063;51.406;-2.402;2022-09-09T03:39:52;6.32;;;2.83;;
48881;SDS011;57063;51.406;-2.402;2022-09-09T03:42:19;5.35;;;2.83;;
48881;SDS011;57063;51.406;-2.402;2022-09-09T03:44:46;3.85;;;1.67;;
48881;SDS011;57063;51.406;-2.402;2022-09-09T03:47:15;2.40;;;1.48;;
48881;SDS011;57063;51.406;-2.402;2022-09-09T03:49:42;8.30;;;2.38;;
48881;SDS011;57063;51.406;-2.402;2022-09-09T03:52:08;4.45;;;1.90;;
48881;SDS011;57063;51.406;-2.402;2022-09-09T03:54:34;6.95;;;2.40;;
48881;SDS011;57063;51.406;-2.402;2022-09-09T03:56:59;4.03;;;2.08;;
48881;SDS011;57063;51.406;-2.402;2022-09-09T03:59:25;8.88;;;1.98;;
48881;SDS011;57063;51.406;-2.402;2022-09-09T04:01:51;5.50;;;2.50;;
48881;SDS011;57063;51.406;-2.402;2022-09-09T04:04:17;2.97;;;1.58;;
48881;SDS011;57063;51.406;-2.402;2022-09-09T04:06:42;3.10;;;1.48;;
48881;SDS011;57063;51.406;-2.402;2022-09-09T04:09:07;3.53;;;2.08;;
48881;SDS011;57063;51.406;-2.402;2022-09-09T04:11:32;6.32;;;2.35;;
48881;SDS011;57063;51.406;-2.402;2022-09-09T04:13:58;12.68;;;2.60;;
48881;SDS011;57063;51.406;-2.402;2022-09-09T04:16:24;7.00;;;2.10;;
48881;SDS011;57063;51.406;-2.402;2022-09-09T04:18:49;7.25;;;2.53;;
48881;SDS011;57063;51.406;-2.402;2022-09-09T04:21:15;8.25;;;2.28;;
48881;SDS011;57063;51.406;-2.402;2022-09-09T04:23:41;5.63;;;2.17;;
48881;SDS011;57063;51.406;-2.402;2022-09-09T04:26:06;7.30;;;1.98;;
48881;SDS011;57063;51.406;-2.402;2022-09-09T04:28:33;6.65;;;2.33;;
48881;SDS011;57063;51.406;-2.402;2022-09-09T04:31:19;4.88;;;2.10;;
48881;SDS011;57063;51.406;-2.402;2022-09-09T04:33:48;5.13;;;1.42;;
48881;SDS011;57063;51.406;-2.402;2022-09-09T04:36:14;4.35;;;1.85;;
48881;SDS011;57063;51.406;-2.402;2022-09-09T04:38:39;5.15;;;2.03;;
48881;SDS011;57063;51.406;-2.402;2022-09-09T04:41:05;4.45;;;1.92;;
48881;SDS011;57063;51.406;-2.402;2022-09-09T04:43:31;4.25;;;2.15;;
48881;SDS011;57063;51.406;-2.402;2022-09-09T04:45:56;9.10;;;2.83;;
48881;SDS011;57063;51.406;-2.402;2022-09-09T04:48:24;5.68;;;2.50;;
48881;SDS011;57063;51.406;-2.402;2022-09-09T04:50:54;9.98;;;2.55;;
48881;SDS011;57063;51.406;-2.402;2022-09-09T04:53:27;4.40;;;1.67;;
48881;SDS011;57063;51.406;-2.402;2022-09-09T04:56:00;7.57;;;2.10;;
48881;SDS011;57063;51.406;-2.402;2022-09-09T04:58:46;6.35;;;1.70;;
48881;SDS011;57063;51.406;-2.402;2022-09-09T05:01:16;5.50;;;2.25;;
48881;SDS011;57063;51.406;-2.402;2022-09-09T05:03:43;4.38;;;1.95;;
48881;SDS011;57063;51.406;-2.402;2022-09-09T05:06:16;9.60;;;2.30;;
48881;SDS011;57063;51.406;-2.402;2022-09-09T05:08:44;8.85;;;1.92;;
48881;SDS011;57063;51.406;-2.402;2022-09-09T05:11:16;9.60;;;2.08;;
48881;SDS011;57063;51.406;-2.402;2022-09-09T05:13:43;3.22;;;1.80;;
48881;SDS011;57063;51.406;-2.402;2022-09-09T05:16:09;6.35;;;1.90;;
48881;SDS011;57063;51.406;-2.402;2022-09-09T05:18:38;10.63;;;3.42;;
48881;SDS011;57063;51.406;-2.402;2022-09-09T05:21:04;11.23;;;3.10;;
48881;SDS011;57063;51.406;-2.402;2022-09-09T05:23:31;3.97;;;1.67;;
48881;SDS011;57063;51.406;-2.402;2022-09-09T05:25:57;9.50;;;2.10;;
48881;SDS011;57063;51.406;-2.402;2022-09-09T05:28:24;4.60;;;1.58;;
48881;SDS011;57063;51.406;-2.402;2022-09-09T05:31:00;4.60;;;1.50;;
48881;SDS011;57063;51.406;-2.402;2022-09-09T05:33:30;3.58;;;1.40;;
48881;SDS011;57063;51.406;-2.402;2022-09-09T05:36:10;5.88;;;1.67;;
48881;SDS011;57063;51.406;-2.402;2022-09-09T05:38:40;8.93;;;1.80;;
48881;SDS011;57063;51.406;-2.402;2022-09-09T05:41:06;9.35;;;1.58;;
48881;SDS011;57063;51.406;-2.402;2022-09-09T05:43:32;8.52;;;1.50;;
48881;SDS011;57063;51.406;-2.402;2022-09-09T05:46:04;4.78;;;1.20;;
48881;SDS011;57063;51.406;-2.402;2022-09-09T05:48:33;7.45;;;1.30;;
48881;SDS011;57063;51.406;-2.402;2022-09-09T05:51:03;6.95;;;1.65;;
48881;SDS011;57063;51.406;-2.402;2022-09-09T05:53:30;5.47;;;1.30;;
48881;SDS011;57063;51.406;-2.402;2022-09-09T05:56:03;5.15;;;1.40;;
48881;SDS011;57063;51.406;-2.402;2022-09-09T05:58:30;5.70;;;1.35;;
48881;SDS011;57063;51.406;-2.402;2022-09-09T06:01:06;4.30;;;1.40;;
48881;SDS011;57063;51.406;-2.402;2022-09-09T06:03:36;4.97;;;1.20;;
48881;SDS011;57063;51.406;-2.402;2022-09-09T06:06:05;6.82;;;1.77;;
48881;SDS011;57063;51.406;-2.402;2022-09-09T06:08:33;3.65;;;1.02;;
48881;SDS011;57063;51.406;-2.402;2022-09-09T06:11:05;3.72;;;1.10;;
48881;SDS011;57063;51.406;-2.402;2022-09-09T06:13:32;5.72;;;1.30;;
48881;SDS011;57063;51.406;-2.402;2022-09-09T06:15:58;6.05;;;1.67;;
48881;SDS011;57063;51.406;-2.402;2022-09-09T06:18:24;4.32;;;1.10;;
48881;SDS011;57063;51.406;-2.402;2022-09-09T06:20:57;6.85;;;1.23;;
48881;SDS011;57063;51.406;-2.402;2022-09-09T06:23:25;5.20;;;1.02;;
48881;SDS011;57063;51.406;-2.402;2022-09-09T06:25:51;4.78;;;0.95;;
48881;SDS011;57063;51.406;-2.402;2022-09-09T06:28:25;8.10;;;1.45;;
48881;SDS011;57063;51.406;-2.402;2022-09-09T06:30:56;5.00;;;0.88;;
48881;SDS011;57063;51.406;-2.402;2022-09-09T06:33:23;4.28;;;1.33;;
48881;SDS011;57063;51.406;-2.402;2022-09-09T06:35:52;3.70;;;1.00;;
48881;SDS011;57063;51.406;-2.402;2022-09-09T06:38:18;3.10;;;1.27;;
48881;SDS011;57063;51.406;-2.402;2022-09-09T06:40:50;3.20;;;1.20;;
48881;SDS011;57063;51.406;-2.402;2022-09-09T06:43:17;6.53;;;2.25;;
48881;SDS011;57063;51.406;-2.402;2022-09-09T06:45:52;3.88;;;1.30;;
48881;SDS011;57063;51.406;-2.402;2022-09-09T06:48:24;4.88;;;1.10;;
48881;SDS011;57063;51.406;-2.402;2022-09-09T06:50:51;7.60;;;1.98;;
48881;SDS011;57063;51.406;-2.402;2022-09-09T06:53:25;5.47;;;1.30;;
48881;SDS011;57063;51.406;-2.402;2022-09-09T06:55:51;9.70;;;1.45;;
48881;SDS011;57063;51.406;-2.402;2022-09-09T06:58:16;7.97;;;1.65;;
48881;SDS011;57063;51.406;-2.402;2022-09-09T07:00:42;6.00;;;1.58;;
48881;SDS011;57063;51.406;-2.402;2022-09-09T07:03:07;15.27;;;3.38;;
48881;SDS011;57063;51.406;-2.402;2022-09-09T07:05:32;4.85;;;1.05;;
48881;SDS011;57063;51.406;-2.402;2022-09-09T07:07:58;7.90;;;1.50;;
48881;SDS011;57063;51.406;-2.402;2022-09-09T07:10:23;10.20;;;1.40;;
48881;SDS011;57063;51.406;-2.402;2022-09-09T07:12:52;4.68;;;1.20;;
48881;SDS011;57063;51.406;-2.402;2022-09-09T07:15:18;8.48;;;1.45;;
48881;SDS011;57063;51.406;-2.402;2022-09-09T07:17:44;5.70;;;1.60;;
48881;SDS011;57063;51.406;-2.402;2022-09-09T07:20:10;9.25;;;1.73;;
48881;SDS011;57063;51.406;-2.402;2022-09-09T07:22:36;9.25;;;2.08;;
48881;SDS011;57063;51.406;-2.402;2022-09-09T07:25:01;5.88;;;1.50;;
48881;SDS011;57063;51.406;-2.402;2022-09-09T07:27:27;6.65;;;1.58;;
48881;SDS011;57063;51.406;-2.402;2022-09-09T07:29:52;5.72;;;1.38;;
48881;SDS011;57063;51.406;-2.402;2022-09-09T07:32:19;8.48;;;1.30;;
48881;SDS011;57063;51.406;-2.402;2022-09-09T07:34:45;10.63;;;1.77;;
48881;SDS011;57063;51.406;-2.402;2022-09-09T07:37:12;8.25;;;1.88;;
48881;SDS011;57063;51.406;-2.402;2022-09-09T07:39:38;15.98;;;1.90;;
48881;SDS011;57063;51.406;-2.402;2022-09-09T07:42:04;6.68;;;1.70;;
48881;SDS011;57063;51.406;-2.402;2022-09-09T07:44:30;4.68;;;1.40;;
48881;SDS011;57063;51.406;-2.402;2022-09-09T07:46:57;4.30;;;1.52;;
48881;SDS011;57063;51.406;-2.402;2022-09-09T07:49:22;6.30;;;1.95;;
48881;SDS011;57063;51.406;-2.402;2022-09-09T07:51:48;7.60;;;1.30;;
48881;SDS011;57063;51.406;-2.402;2022-09-09T07:54:15;6.53;;;1.45;;
48881;SDS011;57063;51.406;-2.402;2022-09-09T07:56:42;4.25;;;0.90;;
48881;SDS011;57063;51.406;-2.402;2022-09-09T07:59:08;6.03;;;1.42;;
48881;SDS011;57063;51.406;-2.402;2022-09-09T08:01:35;6.53;;;1.30;;
48881;SDS011;57063;51.406;-2.402;2022-09-09T08:04:05;6.85;;;1.80;;
48881;SDS011;57063;51.406;-2.402;2022-09-09T08:06:37;6.28;;;1.35;;
48881;SDS011;57063;51.406;-2.402;2022-09-09T08:09:04;2.60;;;0.87;;
48881;SDS011;57063;51.406;-2.402;2022-09-09T08:11:30;6.28;;;1.30;;
48881;SDS011;57063;51.406;-2.402;2022-09-09T08:13:58;9.65;;;1.30;;
48881;SDS011;57063;51.406;-2.402;2022-09-09T08:16:27;7.20;;;1.48;;
48881;SDS011;57063;51.406;-2.402;2022-09-09T08:21:22;10.75;;;2.22;;
48881;SDS011;57063;51.406;-2.402;2022-09-09T08:23:50;2.83;;;0.80;;
48881;SDS011;57063;51.406;-2.402;2022-09-09T08:26:18;6.07;;;0.80;;
48881;SDS011;57063;51.406;-2.402;2022-09-09T08:28:51;2.03;;;0.80;;
48881;SDS011;57063;51.406;-2.402;2022-09-09T08:31:19;3.88;;;1.25;;
48881;SDS011;57063;51.406;-2.402;2022-09-09T08:33:49;3.23;;;0.80;;
48881;SDS011;57063;51.406;-2.402;2022-09-09T08:36:15;2.88;;;0.90;;
48881;SDS011;57063;51.406;-2.402;2022-09-09T08:38:50;5.50;;;1.13;;
48881;SDS011;57063;51.406;-2.402;2022-09-09T08:43:50;4.68;;;1.08;;
48881;SDS011;57063;51.406;-2.402;2022-09-09T08:46:31;2.47;;;0.95;;
48881;SDS011;57063;51.406;-2.402;2022-09-09T08:49:23;4.97;;;1.65;;
48881;SDS011;57063;51.406;-2.402;2022-09-09T08:51:51;2.88;;;1.00;;
48881;SDS011;57063;51.406;-2.402;2022-09-09T08:54:20;6.88;;;0.82;;
48881;SDS011;57063;51.406;-2.402;2022-09-09T08:56:45;3.95;;;0.80;;
48881;SDS011;57063;51.406;-2.402;2022-09-09T08:59:11;2.33;;;0.60;;
48881;SDS011;57063;51.406;-2.402;2022-09-09T09:04:41;3.78;;;0.80;;
48881;SDS011;57063;51.406;-2.402;2022-09-09T09:12:40;3.80;;;0.43;;
48881;SDS011;57063;51.406;-2.402;2022-09-09T09:15:11;2.22;;;0.68;;
48881;SDS011;57063;51.406;-2.402;2022-09-09T09:17:43;2.38;;;0.73;;
48881;SDS011;57063;51.406;-2.402;2022-09-09T09:20:12;4.88;;;1.15;;
48881;SDS011;57063;51.406;-2.402;2022-09-09T09:22:50;4.15;;;0.80;;
48881;SDS011;57063;51.406;-2.402;2022-09-09T09:25:23;1.60;;;0.43;;
48881;SDS011;57063;51.406;-2.402;2022-09-09T09:30:26;2.17;;;0.57;;
48881;SDS011;57063;51.406;-2.402;2022-09-09T09:33:02;6.93;;;0.70;;
48881;SDS011;57063;51.406;-2.402;2022-09-09T09:35:30;4.72;;;1.00;;
48881;SDS011;57063;51.406;-2.402;2022-09-09T09:37:56;5.03;;;0.77;;
48881;SDS011;57063;51.406;-2.402;2022-09-09T09:40:21;1.60;;;0.77;;
48881;SDS011;57063;51.406;-2.402;2022-09-09T09:42:54;3.88;;;1.52;;
48881;SDS011;57063;51.406;-2.402;2022-09-09T09:45:26;5.10;;;1.85;;
48881;SDS011;57063;51.406;-2.402;2022-09-09T09:48:10;3.28;;;1.48;;
48881;SDS011;57063;51.406;-2.402;2022-09-09T09:50:56;4.20;;;1.83;;
48881;SDS011;57063;51.406;-2.402;2022-09-09T09:53:26;3.28;;;1.38;;
48881;SDS011;57063;51.406;-2.402;2022-09-09T09:55:58;8.23;;;2.08;;
48881;SDS011;57063;51.406;-2.402;2022-09-09T09:58:25;8.13;;;3.97;;
48881;SDS011;57063;51.406;-2.402;2022-09-09T10:00:54;8.10;;;3.92;;
48881;SDS011;57063;51.406;-2.402;2022-09-09T10:03:25;6.47;;;3.13;;
48881;SDS011;57063;51.406;-2.402;2022-09-09T10:05:53;7.63;;;3.92;;
48881;SDS011;57063;51.406;-2.402;2022-09-09T10:08:20;6.68;;;2.80;;
48881;SDS011;57063;51.406;-2.402;2022-09-09T10:19:32;3.90;;;1.42;;
48881;SDS011;57063;51.406;-2.402;2022-09-09T10:27:33;5.82;;;1.00;;
48881;SDS011;57063;51.406;-2.402;2022-09-09T10:30:19;1.55;;;0.80;;
48881;SDS011;57063;51.406;-2.402;2022-09-09T10:35:34;3.75;;;1.00;;
48881;SDS011;57063;51.406;-2.402;2022-09-09T10:43:27;1.92;;;0.73;;
48881;SDS011;57063;51.406;-2.402;2022-09-09T10:56:32;1.67;;;0.70;;
48881;SDS011;57063;51.406;-2.402;2022-09-09T10:59:04;1.35;;;0.63;;
48881;SDS011;57063;51.406;-2.402;2022-09-09T11:01:36;4.75;;;0.60;;
48881;SDS011;57063;51.406;-2.402;2022-09-09T11:04:19;1.90;;;0.47;;
48881;SDS011;57063;51.406;-2.402;2022-09-09T11:06:49;2.55;;;0.52;;
48881;SDS011;57063;51.406;-2.402;2022-09-09T11:09:19;3.35;;;0.70;;
48881;SDS011;57063;51.406;-2.402;2022-09-09T11:14:54;5.78;;;0.60;;
48881;SDS011;57063;51.406;-2.402;2022-09-09T11:17:20;3.17;;;0.50;;
48881;SDS011;57063;51.406;-2.402;2022-09-09T11:19:53;2.40;;;0.90;;
48881;SDS011;57063;51.406;-2.402;2022-09-09T11:22:30;1.60;;;0.60;;
48881;SDS011;57063;51.406;-2.402;2022-09-09T11:27:59;3.45;;;0.38;;
48881;SDS011;57063;51.406;-2.402;2022-09-09T11:33:12;2.70;;;1.02;;
48881;SDS011;57063;51.406;-2.402;2022-09-09T11:41:06;2.30;;;1.00;;
48881;SDS011;57063;51.406;-2.402;2022-09-09T11:43:44;2.33;;;0.55;;
48881;SDS011;57063;51.406;-2.402;2022-09-09T11:46:12;2.15;;;0.60;;
48881;SDS011;57063;51.406;-2.402;2022-09-09T11:48:42;1.38;;;0.60;;
48881;SDS011;57063;51.406;-2.402;2022-09-09T11:51:25;1.85;;;0.40;;
48881;SDS011;57063;51.406;-2.402;2022-09-09T11:53:54;1.35;;;0.40;;
48881;SDS011;57063;51.406;-2.402;2022-09-09T11:56:24;5.82;;;0.38;;
48881;SDS011;57063;51.406;-2.402;2022-09-09T11:58:56;0.95;;;0.30;;
48881;SDS011;57063;51.406;-2.402;2022-09-09T12:01:29;3.42;;;0.77;;
48881;SDS011;57063;51.406;-2.402;2022-09-09T12:06:50;2.00;;;0.40;;
48881;SDS011;57063;51.406;-2.402;2022-09-09T12:09:19;1.95;;;0.47;;
48881;SDS011;57063;51.406;-2.402;2022-09-09T12:12:07;4.88;;;0.68;;
48881;SDS011;57063;51.406;-2.402;2022-09-09T12:20:11;1.35;;;0.80;;
48881;SDS011;57063;51.406;-2.402;2022-09-09T12:22:57;4.95;;;0.63;;
48881;SDS011;57063;51.406;-2.402;2022-09-09T12:33:33;1.85;;;0.90;;
48881;SDS011;57063;51.406;-2.402;2022-09-09T12:36:00;3.83;;;1.00;;
48881;SDS011;57063;51.406;-2.402;2022-09-09T12:38:39;2.13;;;0.80;;
48881;SDS011;57063;51.406;-2.402;2022-09-09T12:41:15;5.25;;;2.22;;
48881;SDS011;57063;51.406;-2.402;2022-09-09T12:43:44;5.60;;;1.50;;
48881;SDS011;57063;51.406;-2.402;2022-09-09T12:46:12;4.35;;;1.08;;
48881;SDS011;57063;51.406;-2.402;2022-09-09T12:48:46;4.38;;;0.80;;
48881;SDS011;57063;51.406;-2.402;2022-09-09T12:51:31;2.83;;;1.00;;
48881;SDS011;57063;51.406;-2.402;2022-09-09T12:53:58;3.47;;;1.05;;
48881;SDS011;57063;51.406;-2.402;2022-09-09T12:56:26;2.47;;;0.70;;
48881;SDS011;57063;51.406;-2.402;2022-09-09T12:58:55;5.38;;;0.90;;
48881;SDS011;57063;51.406;-2.402;2022-09-09T13:01:27;3.97;;;1.20;;
48881;SDS011;57063;51.406;-2.402;2022-09-09T13:23:36;4.00;;;1.10;;
48881;SDS011;57063;51.406;-2.402;2022-09-09T13:26:03;2.10;;;0.75;;
48881;SDS011;57063;51.406;-2.402;2022-09-09T13:28:32;2.30;;;0.47;;
48881;SDS011;57063;51.406;-2.402;2022-09-09T13:31:00;4.90;;;1.10;;
48881;SDS011;57063;51.406;-2.402;2022-09-09T13:33:34;3.28;;;1.02;;
48881;SDS011;57063;51.406;-2.402;2022-09-09T13:36:04;7.05;;;1.75;;
48881;SDS011;57063;51.406;-2.402;2022-09-09T13:38:36;4.05;;;1.30;;
48881;SDS011;57063;51.406;-2.402;2022-09-09T13:41:04;5.57;;;1.45;;
48881;SDS011;57063;51.406;-2.402;2022-09-09T13:43:34;3.63;;;1.00;;
48881;SDS011;57063;51.406;-2.402;2022-09-09T13:46:04;3.25;;;0.95;;
48881;SDS011;57063;51.406;-2.402;2022-09-09T13:48:53;5.10;;;1.10;;
48881;SDS011;57063;51.406;-2.402;2022-09-09T13:51:28;1.80;;;1.10;;
48881;SDS011;57063;51.406;-2.402;2022-09-09T13:54:05;3.83;;;1.30;;
48881;SDS011;57063;51.406;-2.402;2022-09-09T13:56:32;5.70;;;1.00;;
48881;SDS011;57063;51.406;-2.402;2022-09-09T13:58:58;4.93;;;1.00;;
48881;SDS011;57063;51.406;-2.402;2022-09-09T14:01:24;4.07;;;1.33;;
48881;SDS011;57063;51.406;-2.402;2022-09-09T14:03:49;3.20;;;1.27;;
48881;SDS011;57063;51.406;-2.402;2022-09-09T14:06:15;3.85;;;1.10;;
48881;SDS011;57063;51.406;-2.402;2022-09-09T14:08:41;2.28;;;0.75;;
48881;SDS011;57063;51.406;-2.402;2022-09-09T14:11:07;4.45;;;1.50;;
48881;SDS011;57063;51.406;-2.402;2022-09-09T14:13:37;2.53;;;0.93;;
48881;SDS011;57063;51.406;-2.402;2022-09-09T14:16:02;2.95;;;0.80;;
48881;SDS011;57063;51.406;-2.402;2022-09-09T14:18:28;3.45;;;0.80;;
48881;SDS011;57063;51.406;-2.402;2022-09-09T14:20:54;2.88;;;0.77;;
48881;SDS011;57063;51.406;-2.402;2022-09-09T14:23:19;4.40;;;0.80;;
48881;SDS011;57063;51.406;-2.402;2022-09-09T14:25:46;2.83;;;1.10;;
48881;SDS011;57063;51.406;-2.402;2022-09-09T14:28:12;7.35;;;1.20;;
48881;SDS011;57063;51.406;-2.402;2022-09-09T14:30:39;2.42;;;1.02;;
48881;SDS011;57063;51.406;-2.402;2022-09-09T14:33:06;4.15;;;1.40;;
48881;SDS011;57063;51.406;-2.402;2022-09-09T14:35:33;5.30;;;1.58;;
48881;SDS011;57063;51.406;-2.402;2022-09-09T14:37:58;3.75;;;1.35;;
48881;SDS011;57063;51.406;-2.402;2022-09-09T14:40:25;5.57;;;1.52;;
48881;SDS011;57063;51.406;-2.402;2022-09-09T14:42:50;3.45;;;1.10;;
48881;SDS011;57063;51.406;-2.402;2022-09-09T14:45:16;4.95;;;1.20;;
48881;SDS011;57063;51.406;-2.402;2022-09-09T14:47:41;23.15;;;1.40;;
48881;SDS011;57063;51.406;-2.402;2022-09-09T14:50:06;3.58;;;0.63;;
48881;SDS011;57063;51.406;-2.402;2022-09-09T14:52:33;2.65;;;0.65;;
48881;SDS011;57063;51.406;-2.402;2022-09-09T14:54:58;0.70;;;0.50;;
48881;SDS011;57063;51.406;-2.402;2022-09-09T14:57:24;3.38;;;0.57;;
48881;SDS011;57063;51.406;-2.402;2022-09-09T14:59:49;3.90;;;0.90;;
48881;SDS011;57063;51.406;-2.402;2022-09-09T15:02:15;0.90;;;0.68;;
48881;SDS011;57063;51.406;-2.402;2022-09-09T15:04:40;1.80;;;0.70;;
48881;SDS011;57063;51.406;-2.402;2022-09-09T15:07:06;2.47;;;0.70;;
48881;SDS011;57063;51.406;-2.402;2022-09-09T15:09:31;1.80;;;0.80;;
48881;SDS011;57063;51.406;-2.402;2022-09-09T15:11:56;2.50;;;0.80;;
48881;SDS011;57063;51.406;-2.402;2022-09-09T15:14:22;2.28;;;0.90;;
48881;SDS011;57063;51.406;-2.402;2022-09-09T15:16:47;7.80;;;1.40;;
48881;SDS011;57063;51.406;-2.402;2022-09-09T15:19:12;2.28;;;0.77;;
48881;SDS011;57063;51.406;-2.402;2022-09-09T15:21:38;1.55;;;0.60;;
48881;SDS011;57063;51.406;-2.402;2022-09-09T15:51:09;2.42;;;0.85;;
48881;SDS011;57063;51.406;-2.402;2022-09-09T15:53:36;4.63;;;1.20;;
48881;SDS011;57063;51.406;-2.402;2022-09-09T15:56:02;6.47;;;1.23;;
48881;SDS011;57063;51.406;-2.402;2022-09-09T15:58:29;1.88;;;1.10;;
48881;SDS011;57063;51.406;-2.402;2022-09-09T16:01:01;7.55;;;1.50;;
48881;SDS011;57063;51.406;-2.402;2022-09-09T16:08:18;4.32;;;0.88;;
48881;SDS011;57063;51.406;-2.402;2022-09-09T16:10:43;2.47;;;0.60;;
48881;SDS011;57063;51.406;-2.402;2022-09-09T16:13:10;4.20;;;0.82;;
48881;SDS011;57063;51.406;-2.402;2022-09-09T16:15:38;2.03;;;0.80;;
48881;SDS011;57063;51.406;-2.402;2022-09-09T16:18:03;5.40;;;1.33;;
48881;SDS011;57063;51.406;-2.402;2022-09-09T16:20:29;3.58;;;0.82;;
48881;SDS011;57063;51.406;-2.402;2022-09-09T16:22:55;3.88;;;1.00;;
48881;SDS011;57063;51.406;-2.402;2022-09-09T16:25:22;5.03;;;0.90;;
48881;SDS011;57063;51.406;-2.402;2022-09-09T16:27:47;8.98;;;1.30;;
48881;SDS011;57063;51.406;-2.402;2022-09-09T16:30:12;2.65;;;1.27;;
48881;SDS011;57063;51.406;-2.402;2022-09-09T16:32:38;2.33;;;0.57;;
48881;SDS011;57063;51.406;-2.402;2022-09-09T16:35:03;3.50;;;0.52;;
48881;SDS011;57063;51.406;-2.402;2022-09-09T16:37:30;2.45;;;0.73;;
48881;SDS011;57063;51.406;-2.402;2022-09-09T16:39:56;2.30;;;0.88;;
48881;SDS011;57063;51.406;-2.402;2022-09-09T16:42:22;2.90;;;0.68;;
48881;SDS011;57063;51.406;-2.402;2022-09-09T16:44:47;6.05;;;0.70;;
48881;SDS011;57063;51.406;-2.402;2022-09-09T16:47:15;7.50;;;1.35;;
48881;SDS011;57063;51.406;-2.402;2022-09-09T16:49:40;3.17;;;0.70;;
48881;SDS011;57063;51.406;-2.402;2022-09-09T16:52:05;3.30;;;0.65;;
48881;SDS011;57063;51.406;-2.402;2022-09-09T16:54:31;2.15;;;0.35;;
48881;SDS011;57063;51.406;-2.402;2022-09-09T16:56:56;5.63;;;0.70;;
48881;SDS011;57063;51.406;-2.402;2022-09-09T16:59:22;4.43;;;0.70;;
48881;SDS011;57063;51.406;-2.402;2022-09-09T17:01:49;1.67;;;0.55;;
48881;SDS011;57063;51.406;-2.402;2022-09-09T17:04:17;1.38;;;0.43;;
48881;SDS011;57063;51.406;-2.402;2022-09-09T17:06:53;2.22;;;0.60;;
48881;SDS011;57063;51.406;-2.402;2022-09-09T17:09:19;4.57;;;0.50;;
48881;SDS011;57063;51.406;-2.402;2022-09-09T17:11:46;2.83;;;0.60;;
48881;SDS011;57063;51.406;-2.402;2022-09-09T17:26:24;3.78;;;0.82;;
48881;SDS011;57063;51.406;-2.402;2022-09-09T17:28:54;3.60;;;0.73;;
48881;SDS011;57063;51.406;-2.402;2022-09-09T17:31:20;2.45;;;1.10;;
48881;SDS011;57063;51.406;-2.402;2022-09-09T17:33:47;3.90;;;0.88;;
48881;SDS011;57063;51.406;-2.402;2022-09-09T17:36:18;4.20;;;1.08;;
48881;SDS011;57063;51.406;-2.402;2022-09-09T17:38:46;5.20;;;1.00;;
48881;SDS011;57063;51.406;-2.402;2022-09-09T17:41:13;3.28;;;0.75;;
48881;SDS011;57063;51.406;-2.402;2022-09-09T17:43:48;6.68;;;1.10;;
48881;SDS011;57063;51.406;-2.402;2022-09-09T17:46:19;5.05;;;1.75;;
48881;SDS011;57063;51.406;-2.402;2022-09-09T17:48:46;3.47;;;1.20;;
48881;SDS011;57063;51.406;-2.402;2022-09-09T17:51:15;3.60;;;1.00;;
48881;SDS011;57063;51.406;-2.402;2022-09-09T17:53:45;5.05;;;0.90;;
48881;SDS011;57063;51.406;-2.402;2022-09-09T17:56:12;6.18;;;1.17;;
48881;SDS011;57063;51.406;-2.402;2022-09-09T17:58:40;5.75;;;1.08;;
48881;SDS011;57063;51.406;-2.402;2022-09-09T18:01:07;6.03;;;1.50;;
48881;SDS011;57063;51.406;-2.402;2022-09-09T18:03:34;3.08;;;1.27;;